Details for Delta Airlines at KJFK




Go Back


Latest METAR
Local Time

KJFK 250351Z 22009KT 10SM CLR 18/09 A3011 RMK AO2 SLP194 T01780089

25/05/2018, 00:51:00

Description
Results
Delta Airlines Logo
Number of Pilots based at KJFK
0 Pilots Based here
Number of Delta Airlines Flights Departed from KJFK
10 Flights Departed
Number of Delta Airlines Flights Arrived at KJFK
7 Flights Arrived
Number of Delta Airlines Schedules Departing from KJFK
485 Schedules
Number of Delta Airlines Schedules Arriving at KJFK
389 Schedules
Number of Delta Airlines Schedules Departing from KJFK availible today
264 Schedules Today
Number of Delta Airlines Schedules Arriving at KJFK availible today
231 Schedules Today
Average Landing Rate at KJFK
-223 fpm
Delta Airlines Average Landing Rate at KJFK
-151 fpm
Total Fuel Purchased at KJFK by Delta Airlines
71,734.33 kgs / 158,145.50 lbs

Pilots Based at KJFK


Pilot ID
Pilot Name
Pilot Rank
No. of Flights
No. of Flying Hours
There are no pilots assigned to this hub!   Will you be the first?
Content